Flight Track Log - Related Links

Times and Time Zones

All times are in EDT time to prevent confusion due to time zone crossing. See the N50KC flight status page for this flight to view local times or setup timezone preferences in your user account.

Time Position Orientation Groundspeed Altitude Reporting Facility
EDT Latitude Longitude Course Direction KTS MPH feet Rate Location/Type
Wed 11:00:00 AM 51.3486 -23.0310 308° West  Level Estimated
Wed 11:01:00 AM 51.3558 -23.2190 274° West  Level Estimated
Wed 11:02:00 AM 51.3628 -23.4071 273° West  Level Estimated
Wed 11:03:00 AM 51.3694 -23.5952 273° West  Level Estimated
Wed 11:04:00 AM 51.3757 -23.7834 273° West  Level Estimated
Wed 11:05:00 AM 51.3818 -23.9716 273° West  Level Estimated
Wed 11:06:00 AM 51.3875 -24.1598 273° West  Level Estimated
Wed 11:07:00 AM 51.3929 -24.3482 273° West  Level Estimated
Wed 11:08:00 AM 51.3981 -24.5365 273° West  Level Estimated
Wed 11:09:00 AM 51.4029 -24.7249 272° West  Level Estimated
Wed 11:10:00 AM 51.4074 -24.9134 272° West  Level Estimated
Wed 11:11:00 AM 51.4116 -25.1018 272° West  Level Estimated
Wed 11:12:00 AM 51.4155 -25.2903 272° West  Level Estimated
Wed 11:13:00 AM 51.4192 -25.4789 272° West  Level Estimated
Wed 11:14:00 AM 51.4225 -25.6674 272° West  Level Estimated
Wed 11:15:00 AM 51.4255 -25.8560 272° West  Level Estimated
Wed 11:16:00 AM 51.4282 -26.0447 271° West  Level Estimated
Wed 11:17:00 AM 51.4306 -26.2333 271° West  Level Estimated
Wed 11:18:00 AM 51.4327 -26.4220 271° West  Level Estimated
Wed 11:19:00 AM 51.4345 -26.6106 271° West  Level Estimated
Wed 11:20:00 AM 51.4360 -26.7993 271° West  Level Estimated
Wed 11:21:00 AM 51.4372 -26.9880 271° West  Level Estimated
Wed 11:22:00 AM 51.4381 -27.1767 271° West  Level Estimated
Wed 11:23:00 AM 51.4387 -27.3654 270° West  Level Estimated
Wed 11:23:00 AM 58.0000 -20.0000 285° West 434 499 43,000  Level ETMS Enhanced Traffic Management System
Wed 11:24:00 AM 51.4389 -27.5541 270° West  Level Estimated
Wed 11:25:00 AM 51.4389 -27.7428 270° West  Level Estimated
Wed 11:26:00 AM 51.4386 -27.9316 270° West  Level Estimated
Wed 11:27:00 AM 51.4380 -28.1203 270° West  Level Estimated
Wed 11:28:00 AM 51.4371 -28.3090 270° West  Level Estimated
Wed 11:29:00 AM 58.2105 -21.5499 284° West 434 499 43,000  Level FlightAware Transoceanic
Wed 11:30:00 AM 58.2390 -21.7727 284° West 434 499 43,000  Level FlightAware Transoceanic
Wed 11:31:00 AM 58.2672 -21.9960 283° West 434 499 43,000  Level FlightAware Transoceanic
Wed 11:32:00 AM 58.2949 -22.2196 283° West 434 499 43,000  Level FlightAware Transoceanic
Wed 11:33:00 AM 58.3223 -22.4435 283° West 434 499 43,000  Level FlightAware Transoceanic
Wed 11:34:00 AM 58.3493 -22.6678 283° West 434 499 43,000  Level FlightAware Transoceanic
Wed 11:35:00 AM 58.3759 -22.8924 283° West 434 499 43,000  Level FlightAware Transoceanic
Wed 11:36:00 AM 58.4020 -23.1174 282° West 434 499 43,000  Level FlightAware Transoceanic
Wed 11:37:00 AM 58.4278 -23.3426 282° West 434 499 43,000  Level FlightAware Transoceanic
Wed 11:38:00 AM 58.4532 -23.5683 282° West 434 499 43,000  Level FlightAware Transoceanic
Wed 11:39:00 AM 58.4782 -23.7942 282° West 434 499 43,000  Level FlightAware Transoceanic
Wed 11:40:00 AM 58.5028 -24.0205 282° West 434 499 43,000  Level FlightAware Transoceanic
Wed 11:41:00 AM 58.5270 -24.2470 281° West 434 499 43,000  Level FlightAware Transoceanic
Wed 11:42:00 AM 58.5508 -24.4739 281° West 434 499 43,000  Level FlightAware Transoceanic
Wed 11:43:00 AM 58.5742 -24.7011 281° West 434 499 43,000  Level FlightAware Transoceanic
Wed 11:44:00 AM 58.5972 -24.9286 281° West 434 499 43,000  Level FlightAware Transoceanic
Wed 11:45:00 AM 58.6198 -25.1564 281° West 434 499 43,000  Level FlightAware Transoceanic
Wed 11:46:00 AM 58.6420 -25.3845 280° West 434 499 43,000  Level FlightAware Transoceanic
Wed 11:47:00 AM 58.6638 -25.6129 280° West 434 499 43,000  Level FlightAware Transoceanic
Wed 11:48:00 AM 58.6852 -25.8415 280° West 434 499 43,000  Level FlightAware Transoceanic
Wed 11:49:00 AM 58.7062 -26.0704 280° West 434 499 43,000  Level FlightAware Transoceanic
Wed 11:50:00 AM 58.7267 -26.2996 280° West 434 499 43,000  Level FlightAware Transoceanic
Wed 11:51:00 AM 58.7469 -26.5291 280° West 434 499 43,000  Level FlightAware Transoceanic
Wed 11:52:00 AM 58.7667 -26.7588 279° West 434 499 43,000  Level FlightAware Transoceanic
Wed 11:53:00 AM 58.7860 -26.9888 279° West 434 499 43,000  Level FlightAware Transoceanic
Wed 11:54:00 AM 58.8049 -27.2191 279° West 434 499 43,000  Level FlightAware Transoceanic
Wed 11:55:00 AM 58.8235 -27.4496 279° West 434 499 43,000  Level FlightAware Transoceanic
Wed 11:56:00 AM 58.8416 -27.6803 279° West 434 499 43,000  Level FlightAware Transoceanic
Wed 11:57:00 AM 58.8593 -27.9113 278° West 434 499 43,000  Level FlightAware Transoceanic
Wed 11:58:00 AM 58.8766 -28.1425 278° West 434 499 43,000  Level FlightAware Transoceanic
Wed 11:59:00 AM 58.8935 -28.3739 278° West 434 499 43,000  Level FlightAware Transoceanic
Wed 12:00:00 PM 58.9099 -28.6056 278° West 434 499 43,000  Level FlightAware Transoceanic
Wed 12:01:00 PM 58.9260 -28.8375 278° West 434 499 43,000  Level FlightAware Transoceanic
Wed 12:02:00 PM 58.9416 -29.0696 277° West 434 499 43,000  Level FlightAware Transoceanic
Wed 12:03:00 PM 58.9568 -29.3019 277° West 434 499 43,000  Level FlightAware Transoceanic
Wed 12:04:00 PM 58.9716 -29.5344 277° West 434 499 43,000  Level FlightAware Transoceanic
Wed 12:05:00 PM 58.9860 -29.7671 277° West 434 499 43,000  Level FlightAware Transoceanic
Wed 12:06:00 PM 58.9996 -29.9939 277° West  Level FlightAware Approximate
Wed 12:07:00 PM 59.0129 -30.2209 277° West  Level FlightAware Approximate
Wed 12:07:00 PM 59.0000 -30.0000 263° West 444 511 43,000  Level ETMS Enhanced Traffic Management System
Wed 12:08:00 PM 58.9869 -30.2146 263° West  Level FlightAware Approximate
Wed 12:09:00 PM 58.9726 -30.4412 263° West  Level FlightAware Approximate
Wed 12:10:00 PM 58.9580 -30.6676 263° West  Level FlightAware Approximate
Wed 12:11:00 PM 58.9430 -30.8938 263° West  Level FlightAware Approximate
Wed 12:12:00 PM 58.9275 -31.1198 263° West  Level FlightAware Approximate
Wed 12:13:00 PM 58.8734 -31.9005 262° West 444 511 43,000  Level FlightAware Transoceanic
Wed 12:14:00 PM 58.8556 -32.1371 262° West 444 511 43,000  Level FlightAware Transoceanic
Wed 12:15:00 PM 58.8374 -32.3734 261° West 444 511 43,000  Level FlightAware Transoceanic
Wed 12:16:00 PM 58.8188 -32.6094 261° West 444 511 43,000  Level FlightAware Transoceanic
Wed 12:17:00 PM 58.7997 -32.8452 261° West 444 511 43,000  Level FlightAware Transoceanic
Wed 12:18:00 PM 58.7802 -33.0807 261° West 444 511 43,000  Level FlightAware Transoceanic
Wed 12:19:00 PM 58.7603 -33.3160 261° West 444 511 43,000  Level FlightAware Transoceanic
Wed 12:20:00 PM 58.7399 -33.5510 260° West 444 511 43,000  Level FlightAware Transoceanic
Wed 12:21:00 PM 58.7191 -33.7857 260° West 444 511 43,000  Level FlightAware Transoceanic
Wed 12:22:00 PM 58.6979 -34.0201 260° West 444 511 43,000  Level FlightAware Transoceanic
Wed 12:23:00 PM 58.6763 -34.2542 260° West 444 511 43,000  Level FlightAware Transoceanic
Wed 12:24:00 PM 58.6542 -34.4881 260° West 444 511 43,000  Level FlightAware Transoceanic
Wed 12:25:00 PM 58.6317 -34.7216 259° West 444 511 43,000  Level FlightAware Transoceanic
Wed 12:26:00 PM 58.6088 -34.9549 259° West 444 511 43,000  Level FlightAware Transoceanic
Wed 12:27:00 PM 58.5855 -35.1878 259° West 444 511 43,000  Level FlightAware Transoceanic
Wed 12:28:00 PM 58.5617 -35.4204 259° West 444 511 43,000  Level FlightAware Transoceanic
Wed 12:29:00 PM 58.5376 -35.6527 259° West 444 511 43,000  Level FlightAware Transoceanic
Wed 12:30:00 PM 58.5130 -35.8847 258° West 444 511 43,000  Level FlightAware Transoceanic
Wed 12:31:00 PM 58.4880 -36.1164 258° West 444 511 43,000  Level FlightAware Transoceanic
Wed 12:32:00 PM 58.4626 -36.3477 258° West 444 511 43,000  Level FlightAware Transoceanic
Wed 12:33:00 PM 58.4367 -36.5787 258° West 444 511 43,000  Level FlightAware Transoceanic
Wed 12:34:00 PM 58.4105 -36.8093 258° West 444 511 43,000  Level FlightAware Transoceanic
Wed 12:35:00 PM 58.3838 -37.0396 257° West 444 511 43,000  Level FlightAware Transoceanic
Wed 12:36:00 PM 58.3567 -37.2696 257° West 444 511 43,000  Level FlightAware Transoceanic
Wed 12:37:00 PM 58.3292 -37.4992 257° West 444 511 43,000  Level FlightAware Transoceanic
Wed 12:38:00 PM 58.3013 -37.7284 257° West 444 511 43,000  Level FlightAware Transoceanic
Wed 12:39:00 PM 58.2730 -37.9573 257° West 444 511 43,000  Level FlightAware Transoceanic
Wed 12:40:00 PM 58.2443 -38.1858 256° West 444 511 43,000  Level FlightAware Transoceanic
Wed 12:41:00 PM 58.2152 -38.4139 256° West 444 511 43,000  Level FlightAware Transoceanic
Wed 12:42:00 PM 58.1856 -38.6416 256° West 444 511 43,000  Level FlightAware Transoceanic
Wed 12:43:00 PM 58.1557 -38.8690 256° West 444 511 43,000  Level FlightAware Transoceanic
Wed 12:44:00 PM 58.1254 -39.0960 256° West 444 511 43,000  Level FlightAware Transoceanic
Wed 12:45:00 PM 58.0946 -39.3226 256° West 444 511 43,000  Level FlightAware Transoceanic
Wed 12:46:00 PM 58.0635 -39.5488 255° West 444 511 43,000  Level FlightAware Transoceanic
Wed 12:47:00 PM 58.0319 -39.7746 255° West 444 511 43,000  Level FlightAware Transoceanic
Wed 12:48:00 PM 58.0015 -39.9891 255° West  Level FlightAware Approximate
Wed 12:49:00 PM 57.9708 -40.2033 255° West  Level FlightAware Approximate
Wed 12:50:00 PM 57.9701 -40.1913 254° West  Level FlightAware Approximate
Wed 12:50:00 PM 58.0000 -40.0000 254° West 453 521 43,000  Level ETMS Enhanced Traffic Management System
Wed 12:51:00 PM 57.9364 -40.4037 253° West  Level FlightAware Approximate
Wed 12:52:00 PM 57.9024 -40.6157 253° West  Level FlightAware Approximate
Wed 12:53:00 PM 57.8680 -40.8274 253° West  Level FlightAware Approximate
Wed 12:54:00 PM 57.8333 -41.0386 253° West  Level FlightAware Approximate
Wed 12:55:00 PM 57.7983 -41.2494 253° West  Level FlightAware Approximate
Wed 12:56:00 PM 57.7481 -41.5894 253° West 453 521 43,000  Level FlightAware Transoceanic
Wed 12:57:00 PM 57.7106 -41.8146 253° West 453 521 43,000  Level FlightAware Transoceanic
Wed 12:58:00 PM 57.6726 -42.0393 252° West 453 521 43,000  Level FlightAware Transoceanic
Wed 12:59:00 PM 57.6342 -42.2636 252° West 453 521 43,000  Level FlightAware Transoceanic
Wed 01:00:00 PM 57.5954 -42.4874 252° West 453 521 43,000  Level FlightAware Transoceanic
Wed 01:01:00 PM 57.5562 -42.7107 252° West 453 521 43,000  Level FlightAware Transoceanic
Wed 01:02:00 PM 57.5167 -42.9336 252° West 453 521 43,000  Level FlightAware Transoceanic
Wed 01:03:00 PM 57.4767 -43.1559 251° West 453 521 43,000  Level FlightAware Transoceanic
Wed 01:04:00 PM 57.4363 -43.3778 251° West 453 521 43,000  Level FlightAware Transoceanic
Wed 01:05:00 PM 57.3956 -43.5991 251° West 453 521 43,000  Level FlightAware Transoceanic
Wed 01:06:00 PM 57.3545 -43.8200 251° West 453 521 43,000  Level FlightAware Transoceanic
Wed 01:07:00 PM 57.3129 -44.0404 251° West 453 521 43,000  Level FlightAware Transoceanic
Wed 01:08:00 PM 57.2710 -44.2603 250° West 453 521 43,000  Level FlightAware Transoceanic
Wed 01:09:00 PM 57.2288 -44.4796 250° West 453 521 43,000  Level FlightAware Transoceanic
Wed 01:10:00 PM 57.1861 -44.6985 250° West 453 521 43,000  Level FlightAware Transoceanic
Wed 01:11:00 PM 57.1431 -44.9169 250° West 453 521 43,000  Level FlightAware Transoceanic
Wed 01:12:00 PM 57.0996 -45.1347 250° West 453 521 43,000  Level FlightAware Transoceanic
Wed 01:13:00 PM 57.0558 -45.3521 250° West 453 521 43,000  Level FlightAware Transoceanic
Wed 01:14:00 PM 57.0117 -45.5689 249° West 453 521 43,000  Level FlightAware Transoceanic
Wed 01:15:00 PM 56.9671 -45.7852 249° West 453 521 43,000  Level FlightAware Transoceanic
Wed 01:16:00 PM 56.9222 -46.0010 249° West 453 521 43,000  Level FlightAware Transoceanic
Wed 01:17:00 PM 56.8769 -46.2163 249° West 453 521 43,000  Level FlightAware Transoceanic
Wed 01:18:00 PM 56.8312 -46.4310 249° West 453 521 43,000  Level FlightAware Transoceanic
Wed 01:19:00 PM 56.7852 -46.6453 248° West 453 521 43,000  Level FlightAware Transoceanic
Wed 01:20:00 PM 56.7388 -46.8590 248° West 453 521 43,000  Level FlightAware Transoceanic
Wed 01:21:00 PM 56.6921 -47.0721 248° West 453 521 43,000  Level FlightAware Transoceanic
Wed 01:22:00 PM 56.6449 -47.2848 248° West 453 521 43,000  Level FlightAware Transoceanic
Wed 01:23:00 PM 56.5974 -47.4969 248° West 453 521 43,000  Level FlightAware Transoceanic
Wed 01:24:00 PM 56.5496 -47.7084 248° West 453 521 43,000  Level FlightAware Transoceanic
Wed 01:25:00 PM 56.5014 -47.9195 247° West 453 521 43,000  Level FlightAware Transoceanic
Wed 01:26:00 PM 56.4528 -48.1300 247° West 453 521 43,000  Level FlightAware Transoceanic
Wed 01:27:00 PM 56.4039 -48.3399 247° West 453 521 43,000  Level FlightAware Transoceanic
Wed 01:28:00 PM 56.3546 -48.5494 247° West 453 521 43,000  Level FlightAware Transoceanic
Wed 01:29:00 PM 56.3050 -48.7582 247° West 453 521 43,000  Level FlightAware Transoceanic
Wed 01:30:00 PM 56.2551 -48.9665 247° West 453 521 43,000  Level FlightAware Transoceanic
Wed 01:31:00 PM 56.2047 -49.1743 246° West 453 521 43,000  Level FlightAware Transoceanic
Wed 01:32:00 PM 56.1541 -49.3816 246° West 453 521 43,000  Level FlightAware Transoceanic
Wed 01:33:00 PM 56.1031 -49.5883 246° West 453 521 43,000  Level FlightAware Transoceanic
Wed 01:34:00 PM 56.0517 -49.7944 246° West 453 521 43,000  Level FlightAware Transoceanic
Wed 01:35:00 PM 56.0034 -49.9864 246° West  Level FlightAware Approximate
Wed 01:36:00 PM 55.9548 -50.1779 246° West  Level FlightAware Approximate
Wed 01:37:00 PM 55.9638 -50.1684 249° West  Level FlightAware Approximate
Wed 01:38:00 PM 55.9212 -50.3643 249° West  Level FlightAware Approximate
Wed 01:38:47 PM 56.0000 -50.0000 250° West 419 482 43,000  Level ETMS Enhanced Traffic Management System
Wed 01:39:00 PM 55.8784 -50.5597 249° West  Level FlightAware Approximate
Wed 01:40:00 PM 55.8353 -50.7547 249° West  Level FlightAware Approximate
Wed 01:41:00 PM 55.7919 -50.9492 248° West  Level FlightAware Approximate
Wed 01:42:00 PM 55.7481 -51.1433 248° West  Level FlightAware Approximate
Wed 01:43:00 PM 55.7040 -51.3370 248° West  Level FlightAware Approximate
Wed 01:44:00 PM 55.6702 -51.5529 249° West 419 482 43,000  Level FlightAware Transoceanic
Wed 01:45:00 PM 55.6276 -51.7452 248° West 419 482 43,000  Level FlightAware Transoceanic
Wed 01:46:00 PM 55.5847 -51.9370 248° West 419 482 43,000  Level FlightAware Transoceanic
Wed 01:47:00 PM 55.5415 -52.1284 248° West 419 482 43,000  Level FlightAware Transoceanic
Wed 01:48:00 PM 55.4980 -52.3194 248° West 419 482 43,000  Level FlightAware Transoceanic
Wed 01:49:00 PM 55.4542 -52.5100 248° West 419 482 43,000  Level FlightAware Transoceanic
Wed 01:50:00 PM 55.4101 -52.7001 248° West 419 482 43,000  Level FlightAware Transoceanic
Wed 01:51:00 PM 55.3658 -52.8898 248° West 419 482 43,000  Level FlightAware Transoceanic
Wed 01:52:00 PM 55.3211 -53.0791 247° West 419 482 43,000  Level FlightAware Transoceanic
Wed 01:53:00 PM 55.2761 -53.2680 247° West 419 482 43,000  Level FlightAware Transoceanic
Wed 01:54:00 PM 55.2309 -53.4564 247° West 419 482 43,000  Level FlightAware Transoceanic
Wed 01:55:00 PM 55.1853 -53.6444 247° West 419 482 43,000  Level FlightAware Transoceanic
Wed 01:56:00 PM 55.1395 -53.8320 247° West 419 482 43,000  Level FlightAware Transoceanic
Wed 01:57:00 PM 55.0934 -54.0192 247° West 419 482 43,000  Level FlightAware Transoceanic
Wed 01:58:00 PM 55.0470 -54.2059 246° West 419 482 43,000  Level FlightAware Transoceanic
Wed 01:59:00 PM 55.0003 -54.3922 246° West 419 482 43,000  Level FlightAware Transoceanic
Wed 02:00:00 PM 54.9533 -54.5780 246° West 419 482 43,000  Level FlightAware Transoceanic
Wed 02:01:00 PM 54.9061 -54.7634 246° West 419 482 43,000  Level FlightAware Transoceanic
Wed 02:02:00 PM 54.8585 -54.9484 246° West 419 482 43,000  Level FlightAware Transoceanic
Wed 02:03:00 PM 54.8107 -55.1329 246° West 419 482 43,000  Level FlightAware Transoceanic
Wed 02:03:34 PM 54.8333 -55.0167 229° Southwest 430 495 43,000  Level Moncton Center
Wed 02:04:00 PM 54.7626 -55.3170 246° West 419 482 43,000  Level FlightAware Transoceanic
Wed 02:04:34 PM 54.7667 -55.2000 238° Southwest 430 495 43,000  Level Moncton Center
Wed 02:05:00 PM 54.7142 -55.5007 245° Southwest 419 482 43,000  Level FlightAware Transoceanic
Wed 02:05:34 PM 54.7000 -55.4000 240° Southwest 430 495 43,000  Level Moncton Center
Wed 02:06:00 PM 54.6656 -55.6839 245° Southwest 419 482 43,000  Level FlightAware Transoceanic
Wed 02:06:34 PM 54.6500 -55.5500 240° Southwest 450 518 43,000  Level Moncton Center
Wed 02:07:00 PM 54.5923 -55.8291 229° Southwest  Level Estimated
Wed 02:07:34 PM 54.5833 -55.7333 238° Southwest 450 518 43,000  Level Moncton Center
Wed 02:08:00 PM 54.5189 -55.9739 229° Southwest  Level Estimated
Wed 02:08:34 PM 54.5000 -55.9333 234° Southwest 450 518 43,000  Level Moncton Center
Wed 02:09:34 PM 54.4500 -56.1167 245° Southwest 440 506 43,000  Level Moncton Center
Wed 02:10:34 PM 54.3833 -56.2667 233° Southwest 450 518 43,000  Level Moncton Center
Wed 02:11:34 PM 54.3000 -56.4500 232° Southwest 450 518 43,000  Level Moncton Center
Wed 02:12:34 PM 54.2333 -56.6333 238° Southwest 440 506 43,000  Level Moncton Center
Wed 02:13:34 PM 54.1667 -56.8333 240° Southwest 450 518 43,000  Level Moncton Center
Wed 02:14:34 PM 54.1000 -57.0000 236° Southwest 450 518 43,000  Level Moncton Center
Wed 02:15:34 PM 54.0333 -57.1667 236° Southwest 450 518 43,000  Level Moncton Center
Wed 02:16:34 PM 53.9500 -57.3500 232° Southwest 450 518 43,000  Level Moncton Center
Wed 02:17:34 PM 53.8833 -57.5333 238° Southwest 450 518 43,000  Level Moncton Center
Wed 02:18:34 PM 53.8333 -57.6833 241° Southwest 440 506 43,000  Level Moncton Center
Wed 02:19:34 PM 53.7500 -57.8667 232° Southwest 450 518 43,000  Level Moncton Center
Wed 02:20:34 PM 53.6833 -58.0500 239° Southwest 440 506 43,000  Level Moncton Center
Wed 02:21:34 PM 53.6000 -58.2167 230° Southwest 440 506 43,000  Level Moncton Center
Wed 02:22:34 PM 53.5500 -58.3667 241° Southwest 440 506 43,000  Level Moncton Center
Wed 02:23:38 PM 53.4667 -58.5833 237° Southwest 440 506 43,000  Level Gander Center
Wed 02:24:38 PM 53.4000 -58.7333 233° Southwest 440 506 43,000  Level Gander Center
Wed 02:25:38 PM 53.3167 -58.9000 230° Southwest 440 506 43,000  Level Gander Center
Wed 02:26:34 PM 53.2500 -59.0500 233° Southwest 440 506 43,000  Level Moncton Center
Wed 02:27:34 PM 53.2000 -59.2333 246° West 440 506 43,000  Level Moncton Center
Wed 02:28:34 PM 53.1167 -59.4000 230° Southwest 440 506 43,000  Level Moncton Center
Wed 02:29:34 PM 53.0500 -59.5500 234° Southwest 440 506 43,000  Level Moncton Center
Wed 02:30:38 PM 52.9667 -59.7333 233° Southwest 440 506 43,000  Level Gander Center
Wed 02:31:38 PM 52.8833 -59.9000 230° Southwest 440 506 43,000  Level Gander Center
Wed 02:32:38 PM 52.8167 -60.0667 237° Southwest 440 506 43,000  Level Gander Center
Wed 02:33:38 PM 52.7500 -60.2333 237° Southwest 440 506 43,000  Level Gander Center
Wed 02:34:38 PM 52.6667 -60.4000 231° Southwest 440 506 43,000  Level Gander Center
Wed 02:35:38 PM 52.6000 -60.5667 237° Southwest 440 506 43,000  Level Gander Center
Wed 02:36:38 PM 52.5333 -60.7333 237° Southwest 440 506 43,000  Level Gander Center
Wed 02:37:34 PM 52.4667 -60.8833 234° Southwest 440 506 43,000  Level Moncton Center
Wed 02:38:34 PM 52.3833 -61.0333 228° Southwest 440 506 43,000  Level Moncton Center
Wed 02:39:34 PM 52.3333 -61.2000 244° Southwest 440 506 43,000  Level Moncton Center
Wed 02:40:34 PM 52.2500 -61.3667 231° Southwest 440 506 43,000  Level Moncton Center
Wed 02:41:34 PM 52.1667 -61.5000 224° Southwest 440 506 43,000  Level Moncton Center
Wed 02:42:34 PM 52.0833 -61.6667 231° Southwest 440 506 43,000  Level Moncton Center
Wed 02:43:34 PM 52.0167 -61.8167 234° Southwest 440 506 43,000  Level Moncton Center
Wed 02:44:38 PM 51.9333 -61.9833 231° Southwest 440 506 43,000  Level Gander Center
Wed 02:45:34 PM 51.8667 -62.1500 237° Southwest 440 506 43,000  Level Moncton Center
Wed 02:46:34 PM 51.8000 -62.2833 231° Southwest 440 506 43,000  Level Moncton Center
Wed 02:47:34 PM 51.7167 -62.4500 231° Southwest 440 506 43,000  Level Moncton Center
Wed 02:48:34 PM 51.6500 -62.6167 237° Southwest 440 506 43,000  Level Moncton Center
Wed 02:49:34 PM 51.5667 -62.7833 231° Southwest 440 506 43,000  Level Moncton Center
Wed 02:50:34 PM 51.4833 -62.9167 225° Southwest 440 506 43,000  Level Moncton Center
Wed 02:51:34 PM 51.4167 -63.0833 237° Southwest 440 506 43,000  Level Moncton Center
Wed 02:52:34 PM 51.3500 -63.2500 237° Southwest 440 506 43,000  Level Moncton Center
Wed 02:53:34 PM 51.2667 -63.4000 228° Southwest 440 506 43,000  Level Moncton Center
Wed 02:54:34 PM 51.1833 -63.5500 228° Southwest 440 506 43,000  Level Moncton Center
Wed 02:55:34 PM 51.1167 -63.7000 235° Southwest 450 518 43,000  Level Moncton Center
Wed 02:56:34 PM 51.0333 -63.8667 232° Southwest 450 518 43,000  Level Moncton Center
Wed 02:57:34 PM 50.9500 -64.0000 225° Southwest 440 506 43,000  Level Moncton Center
Wed 02:58:34 PM 50.8667 -64.1667 232° Southwest 450 518 43,000  Level Moncton Center
Wed 02:59:34 PM 50.8000 -64.3167 235° Southwest 440 506 43,000  Level Moncton Center
Wed 03:00:34 PM 50.7167 -64.4500 225° Southwest 440 506 43,000  Level Moncton Center
Wed 03:01:34 PM 50.6500 -64.6000 235° Southwest 440 506 43,000  Level Moncton Center
Wed 03:02:34 PM 50.5667 -64.7667 232° Southwest 440 506 43,000  Level Moncton Center
Wed 03:03:38 PM 50.4833 -64.9167 229° Southwest 440 506 43,000  Level Gander Center
Wed 03:04:38 PM 50.4000 -65.0667 229° Southwest 440 506 43,000  Level Gander Center
Wed 03:05:38 PM 50.3167 -65.2167 229° Southwest 440 506 43,000  Level Gander Center
Wed 03:06:38 PM 50.2333 -65.3667 229° Southwest 440 506 43,000  Level Gander Center
Wed 03:07:38 PM 50.1667 -65.5167 235° Southwest 440 506 43,000  Level Gander Center
Wed 03:08:38 PM 50.0667 -65.6667 224° Southwest 440 506 43,000  Level Gander Center
Wed 03:09:38 PM 50.0000 -65.7833 228° Southwest 450 518 43,000  Level Gander Center
Wed 03:10:34 PM 49.9167 -65.9333 229° Southwest 450 518 43,000  Level Moncton Center
Wed 03:11:34 PM 49.8500 -66.0833 235° Southwest 450 518 43,000  Level Moncton Center
Wed 03:12:34 PM 49.7667 -66.2333 229° Southwest 440 506 43,000  Level Moncton Center
Wed 03:13:34 PM 49.6833 -66.3667 226° Southwest 440 506 43,000  Level Moncton Center
Wed 03:14:34 PM 49.5833 -66.5167 224° Southwest 440 506 43,000  Level Moncton Center
Wed 03:15:34 PM 49.5167 -66.6667 236° Southwest 440 506 43,000  Level Moncton Center
Wed 03:16:34 PM 49.4333 -66.7833 222° Southwest 440 506 43,000  Level Moncton Center
Wed 03:17:34 PM 49.3500 -66.9333 230° Southwest 450 518 43,000  Level Moncton Center
Wed 03:18:34 PM 49.2833 -67.1000 239° Southwest 440 506 43,000  Level Moncton Center
Wed 03:19:34 PM 49.1833 -67.2333 221° Southwest 440 506 43,000  Level Moncton Center
Wed 03:20:34 PM 49.1000 -67.3667 226° Southwest 450 518 43,000  Level Moncton Center
Wed 03:21:34 PM 49.0167 -67.5167 230° Southwest 450 518 43,000  Level Moncton Center
Wed 03:22:34 PM 48.9333 -67.6667 230° Southwest 450 518 43,000  Level Moncton Center
Wed 03:23:38 PM 48.8500 -67.8167 230° Southwest 450 518 43,000  Level Gander Center
Wed 03:24:34 PM 48.7667 -67.9500 227° Southwest 450 518 43,000  Level Moncton Center
Wed 03:25:34 PM 48.6833 -68.0667 223° Southwest 450 518 43,000  Level Moncton Center
Wed 03:26:34 PM 48.5833 -68.2167 225° Southwest 440 506 43,000 200 Level Moncton Center
Wed 03:27:34 PM 48.5167 -68.3333 229° Southwest 440 506 43,400 500 Climbing Moncton Center
Wed 03:28:34 PM 48.4333 -68.4833 230° Southwest 450 518 44,000 650 Climbing Moncton Center
Wed 03:29:34 PM 48.3500 -68.6333 230° Southwest 450 518 44,700 750 Climbing Moncton Center
Wed 03:30:34 PM 48.2500 -68.7667 222° Southwest 450 518 45,500 800 Climbing Moncton Center
Wed 03:31:19 PM 48.2000 -68.8500 228° Southwest 440 506 46,100 629 Climbing Montreal Center
Wed 03:32:19 PM 48.1167 -68.9667 223° Southwest 430 495 46,600 450 Climbing Montreal Center
Wed 03:33:19 PM 48.0333 -69.1000 227° Southwest 430 495 47,000 200 Climbing Montreal Center
Wed 03:34:19 PM 47.9500 -69.2333 227° Southwest 440 506 47,000  Level Montreal Center
Wed 03:35:19 PM 47.8667 -69.3833 230° Southwest 440 506 47,000  Level Montreal Center
Wed 03:36:19 PM 47.7833 -69.5167 227° Southwest 440 506 47,000  Level Montreal Center
Wed 03:37:19 PM 47.6833 -69.6333 218° Southwest 440 506 47,000  Level Montreal Center
Wed 03:38:19 PM 47.5833 -69.7333 214° Southwest 440 506 47,000  Level Montreal Center
Wed 03:39:19 PM 47.4833 -69.8333 214° Southwest 440 506 47,000  Level Montreal Center
Wed 03:40:19 PM 47.3667 -69.9333 210° Southwest 440 506 47,000  Level Montreal Center
Wed 03:41:19 PM 47.2833 -70.0333 219° Southwest 440 506 47,000  Level Montreal Center
Wed 03:42:19 PM 47.1833 -70.1333 214° Southwest 440 506 47,000  Level Montreal Center
Wed 03:43:19 PM 47.0667 -70.2167 206° Southwest 440 506 47,000  Level Montreal Center
Wed 03:44:19 PM 46.9667 -70.3333 219° Southwest 440 506 47,000  Level Montreal Center
Wed 03:45:19 PM 46.8833 -70.4167 214° Southwest 440 506 47,000  Level Montreal Center
Wed 03:46:19 PM 46.7667 -70.5333 214° Southwest 440 506 47,000  Level Montreal Center
Wed 03:47:19 PM 46.6667 -70.6167 210° Southwest 440 506 47,000  Level Montreal Center
Wed 03:48:19 PM 46.5500 -70.7167 211° Southwest 440 506 47,000  Level Montreal Center
Wed 03:49:19 PM 46.4500 -70.8000 210° Southwest 440 506 47,000  Level Montreal Center
Wed 03:50:19 PM 46.3500 -70.9167 219° Southwest 440 506 47,000  Level Montreal Center
Wed 03:51:19 PM 46.2500 -71.0167 215° Southwest 440 506 47,000  Level Montreal Center
Wed 03:52:19 PM 46.1333 -71.1000 206° Southwest 440 506 47,000  Level Montreal Center
Wed 03:53:19 PM 46.0333 -71.2000 215° Southwest 450 518 47,000  Level Montreal Center
Wed 03:54:19 PM 45.9500 -71.2833 215° Southwest 450 518 47,000  Level Montreal Center
Wed 03:55:19 PM 45.8333 -71.4000 215° Southwest 450 518 47,000  Level Montreal Center
Wed 03:56:19 PM 45.7333 -71.5000 215° Southwest 440 506 47,000  Level Montreal Center
Wed 03:57:19 PM 45.6167 -71.5833 207° Southwest 450 518 47,000  Level Montreal Center
Wed 03:58:19 PM 45.5000 -71.6833 211° Southwest 450 518 47,000  Level Montreal Center
Wed 03:59:19 PM 45.4167 -71.7833 220° Southwest 450 518 47,000  Level Montreal Center
Wed 04:00:19 PM 45.3000 -71.8667 207° Southwest 450 518 47,000  Level Montreal Center
Wed 04:01:19 PM 45.1833 -71.9833 215° Southwest 450 518 47,000  Level Montreal Center
Wed 04:02:19 PM 45.0833 -72.0500 205° Southwest 450 518 47,000  Level Montreal Center
Wed 04:03:06 PM 45.0172 -72.1553 228° Southwest 455 524 47,000  Level Boston Center
Wed 04:04:06 PM 44.9092 -72.2494 212° Southwest 455 524 47,000  Level Boston Center
Wed 04:05:18 PM 44.7822 -72.3611 212° Southwest 455 524 47,000  Level Boston Center
Wed 04:06:18 PM 44.6739 -72.4458 209° Southwest 455 524 47,000  Level Boston Center
Wed 04:07:18 PM 44.5592 -72.5247 206° Southwest 455 524 47,000 -250 Level Boston Center
Wed 04:08:18 PM 44.4467 -72.6058 207° Southwest 455 524 46,500 -1,000 Descending Boston Center
Wed 04:09:30 PM 44.3381 -72.6839 207° Southwest 455 524 44,800 -1,818 Descending Boston Center
Wed 04:10:30 PM 44.2192 -72.7733 208° Southwest 455 524 42,500 -2,200 Descending Boston Center
Wed 04:11:30 PM 44.1106 -72.8536 208° Southwest 450 518 40,400 -2,050 Descending Boston Center
Wed 04:12:30 PM 44.0019 -72.9308 207° Southwest 450 518 38,400 -1,950 Descending Boston Center
Wed 04:13:30 PM 43.8975 -73.0047 207° Southwest 441 507 36,500 -1,900 Descending Boston Center
Wed 04:14:30 PM 43.7908 -73.0814 207° Southwest 435 501 34,600 -1,900 Descending Boston Center
Wed 04:15:30 PM 43.6839 -73.1578 207° Southwest 435 501 32,700 -1,900 Descending Boston Center
Wed 04:16:30 PM 43.5772 -73.2283 206° Southwest 430 495 30,800 -1,900 Descending Boston Center
Wed 04:17:30 PM 43.4703 -73.3042 207° Southwest 430 495 28,900 -1,900 Descending Boston Center
Wed 04:18:30 PM 43.3636 -73.3797 207° Southwest 425 489 27,000 -1,900 Descending Boston Center
Wed 04:19:30 PM 43.2608 -73.4464 205° Southwest 425 489 25,100 -1,700 Descending Boston Center
Wed 04:20:30 PM 43.1603 -73.5161 207° Southwest 420 483 23,600 -1,700 Descending Boston Center
Wed 04:21:30 PM 43.0636 -73.5853 208° Southwest 408 470 21,700 -1,850 Descending Boston Center
Wed 04:22:30 PM 42.9650 -73.6544 207° Southwest 403 464 19,900 -1,900 Descending Boston Center
Wed 04:23:30 PM 42.8725 -73.7178 207° Southwest 392 451 17,900 -1,800 Descending Boston Center
Wed 04:24:30 PM 42.7800 -73.7867 209° Southwest 392 451 16,300 -950 Descending Boston Center
Wed 04:25:30 PM 42.6856 -73.8522 207° Southwest 392 451 16,000 -150 Descending Boston Center
Wed 04:26:30 PM 42.5844 -73.9233 207° Southwest 384 442 16,000  Level Boston Center
Wed 04:27:30 PM 42.5025 -73.9861 209° Southwest 379 436 16,000  Level Boston Center
Wed 04:28:30 PM 42.3992 -74.0622 209° Southwest 379 436 16,000 50 Level Boston Center
Wed 04:29:30 PM 42.3086 -74.1303 209° Southwest 379 436 16,100 50 Climbing Boston Center
Wed 04:30:30 PM 42.2244 -74.1922 209° Southwest 379 436 16,100 -150 Level Boston Center
Wed 04:31:30 PM 42.1211 -74.2678 208° Southwest 384 442 15,800 -900 Descending Boston Center
Wed 04:32:30 PM 42.0328 -74.3128 201° Southwest 384 442 14,300 -1,500 Descending Boston Center
Wed 04:33:30 PM 41.9233 -74.3653 200° South 379 436 12,800 -1,400 Descending Boston Center
Wed 04:34:30 PM 41.8417 -74.3992 197° South 361 415 11,500 -1,400 Descending Boston Center
Wed 04:35:30 PM 41.7492 -74.4408 199° South 330 380 10,000 -1,350 Descending Boston Center
Wed 04:36:30 PM 41.6819 -74.4719 199° South 300 345 8,800 -1,300 Descending Boston Center
Wed 04:37:30 PM 41.6042 -74.5056 198° South 281 323 7,400 -1,000 Descending Boston Center
Wed 04:38:30 PM 41.5369 -74.5339 198° South 281 323 6,800 -700 Descending Boston Center
Wed 04:39:30 PM 41.4592 -74.5703 199° South 276 318 6,000 -282 Descending Boston Center
Wed 04:41:20 PM 41.3333 -74.6167 195° South 271 312 6,000 -247 Level New York TRACON
Wed 04:42:20 PM 41.2500 -74.6500 197° South 269 310 5,300 -850 Descending New York TRACON
Wed 04:43:20 PM 41.1833 -74.6833 201° Southwest 269 310 4,300 -650 Descending New York TRACON
Wed 04:44:20 PM 41.1167 -74.6833 180° South 264 304 4,000 -150 Descending New York TRACON
Wed 04:45:20 PM 41.0333 -74.6500 163° South 265 305 4,000  Level New York TRACON
Wed 04:46:20 PM 40.9667 -74.6333 169° South 270 311 4,000  Level New York TRACON
Wed 04:47:20 PM 40.9000 -74.6167 169° South 263 303 4,000  Level New York TRACON
Wed 04:48:20 PM 40.8500 -74.5667 143° Southeast 227 261 4,000  Level New York TRACON
Wed 04:49:21 PM 40.8000 -74.5167 143° Southeast 228 262 4,000  Level New York TRACON
Wed 04:50:21 PM 40.7500 -74.4500 135° Southeast 225 259 4,000 -350 Level New York TRACON
Wed 04:51:21 PM 40.7333 -74.3833 108° East 225 259 3,300 -1,000 Descending New York TRACON
Wed 04:52:21 PM 40.7333 -74.3000 90° East 225 259 2,000 -650 Descending New York TRACON
Wed 04:53:21 PM 40.7500 -74.2333 72° East 190 219 2,000  Level New York TRACON

Login

Don't have an account? Register now (free) for customized features, flight alerts, and more!